createdAt,value
2018-04-22T00:02:04.702Z,70.90
2018-04-22T00:04:33.948Z,71.20
2018-04-22T00:07:05.153Z,71.80
2018-04-22T00:09:37.020Z,72.20
2018-04-22T00:12:06.851Z,72.20
2018-04-22T00:14:36.056Z,72.40
2018-04-22T00:17:05.296Z,72.80
2018-04-22T00:19:36.602Z,73.20
2018-04-22T00:22:05.924Z,74.00
2018-04-22T00:24:36.392Z,74.80
2018-04-22T00:27:07.308Z,75.20
2018-04-22T00:29:39.947Z,75.50
2018-04-22T00:32:11.409Z,75.10
2018-04-22T00:34:41.300Z,75.00
2018-04-22T00:37:12.193Z,74.70
2018-04-22T00:42:28.197Z,75.30
2018-04-22T00:45:01.430Z,75.30
2018-04-22T00:47:31.079Z,75.90
2018-04-22T00:50:03.906Z,76.70
2018-04-22T00:52:33.110Z,76.70
2018-04-22T00:55:02.346Z,77.80
2018-04-22T00:57:31.530Z,77.00
2018-04-22T01:00:01.820Z,77.20
2018-04-22T01:02:31.093Z,77.40
2018-04-22T01:05:01.535Z,77.80
2018-04-22T01:07:30.922Z,77.80
2018-04-22T01:10:00.955Z,77.80
2018-04-22T01:12:30.961Z,77.70
2018-04-22T01:15:00.155Z,77.60
2018-04-22T01:17:29.282Z,77.20
2018-04-22T01:19:58.494Z,77.30
2018-04-22T01:22:27.671Z,77.70
2018-04-22T01:24:56.911Z,77.90
2018-04-22T01:27:26.111Z,78.60
2018-04-22T01:29:55.220Z,78.80
2018-04-22T01:32:24.448Z,78.70
2018-04-22T01:34:53.639Z,78.80
2018-04-22T01:37:22.749Z,79.30
2018-04-22T01:39:51.858Z,79.80
2018-04-22T01:42:21.061Z,80.20
2018-04-22T01:44:50.259Z,80.00
2018-04-22T01:47:19.835Z,80.20
2018-04-22T01:49:49.077Z,80.70
2018-04-22T01:52:18.284Z,80.60
2018-04-22T01:54:48.640Z,80.30
2018-04-22T01:57:19.003Z,80.20
2018-04-22T01:59:48.175Z,80.20
2018-04-22T02:02:17.353Z,80.00
2018-04-22T02:04:46.629Z,80.30
2018-04-22T02:07:15.802Z,80.60
2018-04-22T02:09:45.004Z,81.20
2018-04-22T02:12:14.309Z,81.20
2018-04-22T02:14:43.446Z,81.60
2018-04-22T02:17:13.406Z,81.80
2018-04-22T02:19:43.305Z,81.80
2018-04-22T02:22:13.142Z,82.60
2018-04-22T02:24:42.282Z,82.40
2018-04-22T02:27:11.462Z,82.20
2018-04-22T02:29:41.886Z,81.00
2018-04-22T02:32:11.195Z,81.00
2018-04-22T02:34:40.372Z,81.40
2018-04-22T02:37:09.538Z,81.90
2018-04-22T02:39:38.652Z,82.50
2018-04-22T02:42:08.326Z,82.50
2018-04-22T02:44:37.549Z,82.50
2018-04-22T02:47:06.770Z,81.80
2018-04-22T02:49:36.137Z,79.20
2018-04-22T02:52:06.246Z,77.90
2018-04-22T02:54:35.417Z,77.80
2018-04-22T02:57:04.553Z,77.50
2018-04-22T02:59:33.709Z,77.70
2018-04-22T03:02:02.877Z,77.70
2018-04-22T03:04:32.053Z,77.80
2018-04-22T03:07:01.181Z,78.10
2018-04-22T03:09:30.505Z,78.50
2018-04-22T03:11:59.658Z,78.70
2018-04-22T03:14:28.895Z,78.90
2018-04-22T03:16:58.012Z,79.00
2018-04-22T03:19:27.185Z,79.30
2018-04-22T03:21:56.576Z,79.20
2018-04-22T03:24:26.156Z,78.90
2018-04-22T03:26:55.285Z,78.90
2018-04-22T03:29:24.458Z,78.90
2018-04-22T03:31:53.625Z,79.10
2018-04-22T03:34:22.772Z,79.20
2018-04-22T03:36:52.789Z,79.60
2018-04-22T03:39:21.974Z,79.80
2018-04-22T03:41:51.158Z,80.40
2018-04-22T03:44:20.321Z,80.60
2018-04-22T03:46:49.455Z,80.60
2018-04-22T03:49:18.576Z,80.80
2018-04-22T03:51:47.738Z,80.80
2018-04-22T03:54:16.935Z,81.20
2018-04-22T03:56:46.300Z,81.50
2018-04-22T03:59:15.568Z,81.80
2018-04-22T04:01:45.509Z,82.50
2018-04-22T04:04:15.498Z,82.60
2018-04-22T04:06:44.674Z,82.50
2018-04-22T04:09:13.904Z,82.90
2018-04-22T04:11:43.197Z,83.10
2018-04-22T04:14:12.708Z,83.40
2018-04-22T04:16:42.012Z,83.80
2018-04-22T04:19:22.486Z,84.20
2018-04-22T04:22:03.130Z,84.50
2018-04-22T04:24:43.918Z,85.00
2018-04-22T04:27:24.290Z,85.00
2018-04-22T04:29:53.683Z,85.20
2018-04-22T04:32:22.874Z,85.30
2018-04-22T04:34:52.954Z,85.70
2018-04-22T04:37:22.163Z,85.60
2018-04-22T04:39:51.291Z,85.90
2018-04-22T04:42:20.488Z,86.00
2018-04-22T04:47:42.763Z,86.30
2018-04-22T04:50:11.919Z,86.50
2018-04-22T04:52:41.045Z,86.50
2018-04-22T04:55:10.421Z,86.50
2018-04-22T04:57:39.694Z,86.40
2018-04-22T05:00:09.732Z,86.40
2018-04-22T05:02:39.647Z,86.50
2018-04-22T05:05:09.725Z,86.50
2018-04-22T05:07:38.894Z,86.50
2018-04-22T05:10:08.127Z,86.70
2018-04-22T05:12:37.268Z,86.90
2018-04-22T05:15:06.610Z,87.10
2018-04-22T05:17:35.792Z,87.30
2018-04-22T05:20:05.047Z,87.50
2018-04-22T05:22:34.199Z,87.70
2018-04-22T05:25:03.429Z,88.00
2018-04-22T05:27:32.578Z,88.20
2018-04-22T05:30:01.838Z,88.30
2018-04-22T05:32:31.027Z,88.60
2018-04-22T05:35:01.289Z,89.10
2018-04-22T05:37:30.430Z,89.20
2018-04-22T05:40:00.421Z,89.40
2018-04-22T05:42:29.597Z,89.40
2018-04-22T05:44:58.778Z,89.50
2018-04-22T05:47:28.037Z,89.60
2018-04-22T05:49:57.269Z,89.80
2018-04-22T05:52:26.419Z,90.00
2018-04-22T05:54:55.632Z,90.00
2018-04-22T05:57:24.851Z,90.10
2018-04-22T05:59:54.029Z,90.10
2018-04-22T06:02:23.152Z,90.20
2018-04-22T06:04:52.338Z,90.40
2018-04-22T06:07:21.533Z,90.50
2018-04-22T06:09:50.669Z,90.70
2018-04-22T06:12:19.763Z,90.80
2018-04-22T06:14:48.902Z,90.80
2018-04-22T06:17:18.219Z,90.90
2018-04-22T06:19:47.448Z,91.10
2018-04-22T06:22:16.572Z,91.30
2018-04-22T06:24:45.716Z,91.40
2018-04-22T06:27:14.930Z,91.70
2018-04-22T06:29:44.054Z,91.80
2018-04-22T06:32:13.194Z,91.90
2018-04-22T06:34:42.361Z,91.90
2018-04-22T06:37:11.834Z,92.00
2018-04-22T06:39:41.067Z,92.00
2018-04-22T06:42:10.249Z,92.10
2018-04-22T06:44:39.371Z,92.10
2018-04-22T06:47:08.487Z,92.10
2018-04-22T06:49:37.602Z,92.10
2018-04-22T06:52:06.825Z,91.90
2018-04-22T06:54:36.003Z,91.80
2018-04-22T06:57:05.270Z,91.70
2018-04-22T06:59:35.210Z,91.80
2018-04-22T07:02:04.366Z,91.40
2018-04-22T07:04:34.219Z,91.50
2018-04-22T07:07:03.282Z,91.40
2018-04-22T07:09:33.705Z,91.50
2018-04-22T07:12:02.873Z,91.50
2018-04-22T07:14:32.221Z,91.40
2018-04-22T07:17:01.380Z,91.40
2018-04-22T07:19:30.578Z,91.20
2018-04-22T07:21:59.744Z,91.20
2018-04-22T07:24:28.904Z,91.00
2018-04-22T07:26:59.240Z,90.80
2018-04-22T07:29:28.349Z,90.60
2018-04-22T07:31:57.546Z,90.50
2018-04-22T07:34:26.726Z,90.50
2018-04-22T07:36:56.635Z,90.70
2018-04-22T07:39:26.023Z,90.70
2018-04-22T07:41:55.180Z,90.50
2018-04-22T07:44:24.294Z,90.30
2018-04-22T07:46:53.496Z,90.30
2018-04-22T07:49:23.349Z,90.30
2018-04-22T07:51:52.603Z,90.40
2018-04-22T07:54:21.709Z,90.50
2018-04-22T07:56:50.802Z,90.60
2018-04-22T07:59:20.506Z,90.70
2018-04-22T08:01:49.679Z,91.00
2018-04-22T08:04:19.327Z,91.10
2018-04-22T08:06:48.478Z,91.10
2018-04-22T08:09:17.605Z,91.10
2018-04-22T08:11:48.101Z,91.00
2018-04-22T08:14:17.171Z,90.90
2018-04-22T08:16:46.319Z,91.00
2018-04-22T08:19:15.421Z,91.00
2018-04-22T08:21:44.631Z,91.00
2018-04-22T08:24:13.928Z,91.00
2018-04-22T08:26:43.848Z,90.90
2018-04-22T08:29:12.959Z,90.90
2018-04-22T08:31:42.251Z,90.90
2018-04-22T08:34:11.417Z,91.10
2018-04-22T08:36:40.615Z,91.10
2018-04-22T08:39:09.892Z,91.00
2018-04-22T08:41:39.227Z,91.10
2018-04-22T08:44:08.387Z,91.10
2018-04-22T08:46:38.297Z,91.00
2018-04-22T08:49:08.195Z,91.00
2018-04-22T08:51:37.363Z,91.00
2018-04-22T08:54:06.459Z,91.00
2018-04-22T08:56:35.542Z,90.90
2018-04-22T08:59:04.839Z,91.00
2018-04-22T09:01:34.505Z,91.00
2018-04-22T09:04:03.663Z,91.10
2018-04-22T09:06:32.781Z,91.30
2018-04-22T09:09:01.937Z,91.40
2018-04-22T09:11:31.053Z,91.50
2018-04-22T09:14:00.332Z,91.80
2018-04-22T09:16:29.556Z,92.10
2018-04-22T09:18:58.714Z,92.30
2018-04-22T09:21:27.826Z,92.40
2018-04-22T09:23:56.995Z,92.40
2018-04-22T09:26:26.146Z,92.50
2018-04-22T09:28:56.306Z,92.60
2018-04-22T09:31:25.429Z,92.90
2018-04-22T09:33:54.637Z,93.00
2018-04-22T09:36:23.800Z,93.20
2018-04-22T09:38:52.919Z,93.30
2018-04-22T09:41:22.214Z,93.60
2018-04-22T09:43:52.319Z,93.30
2018-04-22T09:46:21.447Z,93.70
2018-04-22T09:48:50.635Z,93.50
2018-04-22T09:51:19.762Z,93.70
2018-04-22T09:53:49.626Z,93.70
2018-04-22T09:56:18.780Z,93.70
2018-04-22T09:58:47.925Z,93.70
2018-04-22T10:01:20.990Z,93.60
2018-04-22T10:03:50.905Z,93.60
2018-04-22T10:06:20.017Z,93.60
2018-04-22T10:08:49.192Z,93.30
2018-04-22T10:11:18.292Z,93.30
2018-04-22T10:13:47.515Z,93.30
2018-04-22T10:16:16.646Z,93.00
2018-04-22T10:18:45.885Z,92.90
2018-04-22T10:21:14.977Z,92.80
2018-04-22T10:23:44.099Z,93.00
2018-04-22T10:26:13.317Z,93.10
2018-04-22T10:28:43.216Z,93.10
2018-04-22T10:31:12.322Z,93.10
2018-04-22T10:33:41.536Z,93.20
2018-04-22T10:36:11.507Z,93.50
2018-04-22T10:38:40.922Z,93.50
2018-04-22T10:41:10.070Z,93.50
2018-04-22T10:43:39.189Z,93.50
2018-04-22T10:46:08.350Z,93.50
2018-04-22T10:48:37.419Z,93.60
2018-04-22T10:51:06.569Z,93.60
2018-04-22T10:53:35.678Z,93.60
2018-04-22T10:56:04.824Z,93.50
2018-04-22T10:58:34.053Z,93.40
2018-04-22T11:01:03.365Z,93.30
2018-04-22T11:03:32.511Z,93.30
2018-04-22T11:06:02.839Z,93.50
2018-04-22T11:08:31.924Z,93.60
2018-04-22T11:11:01.281Z,93.70
2018-04-22T11:13:30.470Z,93.70
2018-04-22T11:15:59.554Z,93.70
2018-04-22T11:18:29.471Z,93.70
2018-04-22T11:20:58.656Z,93.70
2018-04-22T11:23:27.857Z,93.80
2018-04-22T11:25:57.883Z,93.70
2018-04-22T11:28:27.083Z,94.20
2018-04-22T11:30:56.482Z,94.10
2018-04-22T11:33:25.737Z,94.40
2018-04-22T11:35:54.922Z,94.50
2018-04-22T11:38:24.135Z,94.70
2018-04-22T11:40:53.298Z,94.80
2018-04-22T11:43:23.010Z,94.90
2018-04-22T11:45:52.189Z,95.00
2018-04-22T11:48:25.106Z,95.10
2018-04-22T11:50:54.635Z,95.00
2018-04-22T11:53:24.771Z,94.80
2018-04-22T11:55:54.246Z,94.70
2018-04-22T11:58:23.888Z,94.40
2018-04-22T12:00:53.220Z,94.20
2018-04-22T12:03:23.569Z,93.90
2018-04-22T12:05:52.864Z,93.90
2018-04-22T12:08:22.902Z,93.50
2018-04-22T12:10:52.365Z,93.30
2018-04-22T12:13:23.199Z,93.10
2018-04-22T12:15:52.627Z,93.00
2018-04-22T12:18:23.523Z,92.70
2018-04-22T12:20:52.933Z,92.70
2018-04-22T12:23:23.311Z,92.70
2018-04-22T12:25:55.914Z,92.50
2018-04-22T12:28:25.181Z,92.60
2018-04-22T12:30:54.632Z,92.40
2018-04-22T12:33:23.928Z,92.40
2018-04-22T12:35:55.411Z,92.20
2018-04-22T12:38:24.919Z,92.10
2018-04-22T12:40:54.317Z,91.90
2018-04-22T12:43:23.638Z,91.70
2018-04-22T12:45:53.022Z,91.50
2018-04-22T12:48:23.946Z,91.20
2018-04-22T12:50:55.939Z,91.10
2018-04-22T12:53:26.653Z,91.00
2018-04-22T12:55:56.745Z,90.80
2018-04-22T12:58:27.020Z,90.80
2018-04-22T13:01:01.909Z,90.60
2018-04-22T13:03:32.440Z,90.40
2018-04-22T13:09:42.978Z,88.90
2018-04-22T13:12:24.201Z,86.90
2018-04-22T13:14:53.749Z,86.60
2018-04-22T13:17:23.707Z,86.30
2018-04-22T13:19:53.378Z,85.70
2018-04-22T13:22:22.750Z,85.00
2018-04-22T13:24:52.069Z,84.20
2018-04-22T13:27:22.174Z,83.90
2018-04-22T13:29:51.491Z,83.90
2018-04-22T13:32:20.763Z,84.20
2018-04-22T13:34:50.192Z,83.50
2018-04-22T13:37:23.304Z,83.30
2018-04-22T13:39:52.829Z,82.70
2018-04-22T13:48:58.554Z,83.30
2018-04-22T13:51:30.382Z,83.40
2018-04-22T13:53:59.990Z,82.40
2018-04-22T13:56:29.495Z,82.50
2018-04-22T13:58:58.971Z,82.20
2018-04-22T14:01:28.401Z,80.60
2018-04-22T14:03:57.920Z,79.80
2018-04-22T14:06:27.104Z,79.10
2018-04-22T14:08:56.364Z,77.80
2018-04-22T14:11:26.227Z,77.00
2018-04-22T14:13:55.845Z,75.80
2018-04-22T14:16:25.316Z,73.20
2018-04-22T14:18:55.040Z,72.50
2018-04-22T14:21:24.766Z,70.50
2018-04-22T14:23:54.373Z,68.40
2018-04-22T14:26:23.666Z,66.70
2018-04-22T14:28:53.166Z,67.40
2018-04-22T14:31:22.435Z,66.60
2018-04-22T14:33:53.148Z,64.90
2018-04-22T14:36:22.659Z,61.70
2018-04-22T14:38:53.123Z,60.10
2018-04-22T14:41:22.407Z,61.00
2018-04-22T14:44:02.822Z,61.50
2018-04-22T14:46:32.041Z,61.20
2018-04-22T14:49:07.035Z,62.20
2018-04-22T14:51:36.484Z,60.30
2018-04-22T14:54:05.674Z,57.20
2018-04-22T14:56:34.765Z,56.70
2018-04-22T14:59:03.904Z,57.60
2018-04-22T15:01:33.978Z,56.60
2018-04-22T15:04:03.141Z,56.60
2018-04-22T15:06:32.366Z,54.40
2018-04-22T15:09:01.618Z,53.20
2018-04-22T15:11:30.828Z,52.10
2018-04-22T15:14:03.832Z,50.50
2018-04-22T15:16:33.079Z,50.00
2018-04-22T15:19:03.025Z,48.80
2018-04-22T15:21:32.144Z,48.70
2018-04-22T15:24:01.288Z,47.30
2018-04-22T15:26:30.553Z,47.10
2018-04-22T15:28:59.745Z,46.60
2018-04-22T15:31:35.577Z,46.80
2018-04-22T15:34:06.693Z,45.70
2018-04-22T15:36:46.038Z,46.50
2018-04-22T15:39:15.130Z,45.50
2018-04-22T15:41:44.280Z,45.60
2018-04-22T15:44:14.040Z,44.30
2018-04-22T15:46:43.391Z,43.40
2018-04-22T15:49:12.844Z,43.30
2018-04-22T15:51:43.196Z,42.80
2018-04-22T15:54:12.485Z,45.10
2018-04-22T15:56:42.598Z,45.30
2018-04-22T15:59:11.722Z,44.10
2018-04-22T16:01:40.868Z,43.40
2018-04-22T16:04:10.141Z,41.00
2018-04-22T16:06:39.297Z,41.50
2018-04-22T16:09:10.428Z,42.00
2018-04-22T16:11:54.720Z,42.60
2018-04-22T16:14:24.010Z,43.80
2018-04-22T16:16:53.366Z,44.40
2018-04-22T16:19:34.586Z,43.80
2018-04-22T16:22:08.540Z,41.80
2018-04-22T16:24:37.850Z,41.70
2018-04-22T16:27:08.155Z,40.90
2018-04-22T16:29:40.276Z,39.70
2018-04-22T16:32:28.207Z,38.70
2018-04-22T16:35:04.725Z,37.50
2018-04-22T16:37:34.834Z,36.90
2018-04-22T16:40:08.178Z,36.50
2018-04-22T16:45:12.675Z,38.20
2018-04-22T16:50:15.013Z,39.20
2018-04-22T16:52:46.657Z,39.30
2018-04-22T16:55:51.181Z,38.90
2018-04-22T16:58:23.699Z,40.30
2018-04-22T17:04:33.997Z,40.30
2018-04-22T17:12:18.123Z,38.70
2018-04-22T17:14:48.827Z,38.50
2018-04-22T17:17:20.974Z,37.40
2018-04-22T17:19:51.995Z,37.30
2018-04-22T17:22:21.994Z,37.20
2018-04-22T17:24:51.577Z,37.70
2018-04-22T17:27:23.581Z,37.80
2018-04-22T17:29:55.301Z,39.10
2018-04-22T17:32:35.639Z,38.00
2018-04-22T17:35:05.713Z,36.10
2018-04-22T17:37:38.529Z,35.70
2018-04-22T17:40:13.685Z,33.50
2018-04-22T17:42:43.349Z,32.20
2018-04-22T17:45:31.875Z,32.30
2018-04-22T17:48:03.724Z,33.70
2018-04-22T17:50:33.035Z,36.40
2018-04-22T17:53:02.390Z,35.90
2018-04-22T17:55:31.719Z,37.50
2018-04-22T17:58:05.445Z,38.80
2018-04-22T18:00:34.803Z,37.50
2018-04-22T18:03:11.770Z,36.10
2018-04-22T18:05:54.779Z,36.10
2018-04-22T18:08:25.142Z,36.30
2018-04-22T18:11:13.000Z,37.70
2018-04-22T18:17:12.764Z,39.40
2018-04-22T18:20:26.308Z,37.70
2018-04-22T18:22:58.435Z,36.10
2018-04-22T18:25:38.499Z,33.30
2018-04-22T18:28:26.183Z,31.80
2018-04-22T18:30:57.184Z,31.30
2018-04-22T18:33:28.932Z,29.90
2018-04-22T18:36:01.193Z,29.30
2018-04-22T18:38:34.701Z,30.40
2018-04-22T18:43:45.549Z,30.10
2018-04-22T18:46:21.631Z,30.00
2018-04-22T18:48:51.186Z,30.80
2018-04-22T18:51:24.721Z,31.30
2018-04-22T18:56:29.891Z,31.90
2018-04-22T18:59:04.502Z,31.90
2018-04-22T19:07:14.423Z,31.80
2018-04-22T19:09:51.744Z,30.70
2018-04-22T19:15:22.463Z,29.80
2018-04-22T19:18:12.604Z,29.30
2018-04-22T19:20:47.255Z,29.60
2018-04-22T19:23:16.612Z,29.60
2018-04-22T19:25:56.032Z,28.90
2018-04-22T19:28:26.552Z,29.40
2018-04-22T19:30:57.876Z,30.00
2018-04-22T19:33:28.282Z,38.40
2018-04-22T19:35:57.767Z,35.60
2018-04-22T19:38:28.844Z,38.80
2018-04-22T19:40:58.340Z,40.00
2018-04-22T19:43:30.747Z,39.40
2018-04-22T19:46:00.532Z,38.00
2018-04-22T19:48:32.965Z,37.30
2018-04-22T19:51:03.462Z,38.60
2018-04-22T19:56:12.013Z,41.60
2018-04-22T19:58:41.402Z,43.40
2018-04-22T20:01:11.567Z,44.90
2018-04-22T20:08:54.379Z,48.10
2018-04-22T20:11:23.868Z,47.00
2018-04-22T20:13:54.297Z,46.90
2018-04-22T20:16:26.040Z,48.10
2018-04-22T20:18:59.045Z,49.50
2018-04-22T20:21:29.642Z,49.70
2018-04-22T20:24:00.214Z,48.60
2018-04-22T20:26:29.464Z,48.80
2018-04-22T20:28:58.596Z,50.00
2018-04-22T20:31:33.687Z,49.90
2018-04-22T20:34:05.686Z,51.20
2018-04-22T20:36:36.858Z,51.10
2018-04-22T20:39:08.089Z,50.50
2018-04-22T20:41:42.478Z,49.80
2018-04-22T20:44:12.960Z,49.40
2018-04-22T20:46:44.090Z,49.20
2018-04-22T20:49:13.842Z,49.60
2018-04-22T20:51:43.564Z,51.50
2018-04-22T20:54:13.045Z,51.70
2018-04-22T20:56:44.296Z,53.50
2018-04-22T20:59:14.444Z,53.10
2018-04-22T21:01:43.992Z,53.00
2018-04-22T21:04:15.426Z,53.40
2018-04-22T21:06:45.228Z,53.50
2018-04-22T21:09:17.140Z,53.40
2018-04-22T21:11:49.112Z,54.00
2018-04-22T21:14:18.812Z,54.00
2018-04-22T21:19:26.297Z,51.60
2018-04-22T21:21:57.630Z,51.00
2018-04-22T21:27:21.682Z,49.70
2018-04-22T21:29:53.641Z,49.60
2018-04-22T21:32:23.930Z,49.00
2018-04-22T21:34:53.360Z,47.70
2018-04-22T21:37:24.495Z,47.20
2018-04-22T21:39:59.390Z,48.10
2018-04-22T21:42:29.714Z,47.80
2018-04-22T21:45:02.252Z,46.90
2018-04-22T21:47:37.043Z,47.50
2018-04-22T21:50:11.115Z,48.70
2018-04-22T21:52:50.752Z,48.70
2018-04-22T21:55:21.672Z,48.40
2018-04-22T21:57:52.387Z,49.00
2018-04-22T22:00:36.581Z,49.00
2018-04-22T22:03:12.983Z,47.40
2018-04-22T22:05:43.483Z,49.80
2018-04-22T22:11:42.639Z,53.70
2018-04-22T22:14:30.260Z,56.40
2018-04-22T22:17:03.145Z,57.80
2018-04-22T22:19:35.608Z,58.90
2018-04-22T22:22:19.360Z,60.60
2018-04-22T22:24:53.382Z,60.70
2018-04-22T22:28:06.378Z,61.60
2018-04-22T22:36:53.652Z,70.90
2018-04-22T22:39:22.877Z,72.50
2018-04-22T22:41:52.787Z,72.00
2018-04-22T22:44:28.819Z,71.40
2018-04-22T22:49:38.130Z,71.60
2018-04-22T22:52:08.426Z,71.30
2018-04-22T22:54:38.013Z,71.50
2018-04-22T22:57:19.671Z,71.40
2018-04-22T22:59:51.661Z,71.40
2018-04-22T23:02:22.030Z,70.60
2018-04-22T23:04:51.241Z,70.00
2018-04-22T23:07:30.974Z,70.10
2018-04-22T23:10:00.328Z,69.80
2018-04-22T23:12:33.922Z,70.00
2018-04-22T23:15:03.725Z,69.40
2018-04-22T23:17:33.927Z,69.80
2018-04-22T23:20:03.653Z,69.60
2018-04-22T23:22:33.796Z,69.50
2018-04-22T23:25:06.437Z,69.50
2018-04-22T23:27:37.091Z,69.90
2018-04-22T23:30:07.364Z,70.90
2018-04-22T23:32:54.685Z,72.50
2018-04-22T23:35:38.388Z,73.00
2018-04-22T23:38:07.833Z,73.20
2018-04-22T23:45:53.225Z,74.30
2018-04-22T23:48:22.781Z,73.40
2018-04-22T23:50:53.215Z,72.90
2018-04-22T23:53:22.641Z,74.20
2018-04-22T23:55:53.575Z,66.40
2018-04-22T23:58:22.899Z,66.30
